createdAt,value
2023-04-18T00:00:49.544Z,102914.00
2023-04-18T00:03:54.615Z,102907.88
2023-04-18T00:06:58.605Z,102906.03
2023-04-18T00:10:02.254Z,102903.44
2023-04-18T00:13:05.928Z,102908.72
2023-04-18T00:16:10.125Z,102905.13
2023-04-18T00:19:15.621Z,102906.91
2023-04-18T00:22:22.322Z,102904.25
2023-04-18T00:25:26.116Z,102904.28
2023-04-18T00:28:29.715Z,102899.06
2023-04-18T00:31:33.286Z,102906.88
2023-04-18T00:34:38.847Z,102906.88
2023-04-18T00:37:42.433Z,102910.34
2023-04-18T00:40:45.964Z,102909.50
2023-04-18T00:43:49.471Z,102903.44
2023-04-18T00:46:52.894Z,102906.13
2023-04-18T00:49:58.056Z,102913.06
2023-04-18T00:53:01.783Z,102909.56
2023-04-18T00:56:06.251Z,102905.06
2023-04-18T00:59:11.969Z,102911.22
2023-04-18T01:02:15.951Z,102904.06
2023-04-18T01:05:21.669Z,102903.94
2023-04-18T01:08:27.849Z,102910.84
2023-04-18T01:11:31.349Z,102910.72
2023-04-18T01:14:35.010Z,102914.97
2023-04-18T01:17:38.584Z,102913.13
2023-04-18T01:20:47.353Z,102913.94
2023-04-18T01:23:51.866Z,102915.69
2023-04-18T01:26:57.284Z,102918.16
2023-04-18T01:30:00.782Z,102917.44
2023-04-18T01:33:06.491Z,102913.91
2023-04-18T01:36:09.978Z,102912.16
2023-04-18T01:39:13.805Z,102908.66
2023-04-18T01:42:18.653Z,102921.75
2023-04-18T01:45:22.595Z,102916.44
2023-04-18T01:48:26.254Z,102919.97
2023-04-18T01:51:29.823Z,102908.72
2023-04-18T01:54:33.270Z,102914.72
2023-04-18T01:57:38.130Z,102918.25
2023-04-18T02:00:41.816Z,102917.44
2023-04-18T02:03:45.619Z,102911.34
2023-04-18T02:06:49.463Z,102911.34
2023-04-18T02:09:52.953Z,102907.84
2023-04-18T02:12:58.141Z,102919.03
2023-04-18T02:16:02.682Z,102918.16
2023-04-18T02:19:06.435Z,102917.25
2023-04-18T02:22:10.161Z,102910.31
2023-04-18T02:25:13.677Z,102913.81
2023-04-18T02:28:18.668Z,102911.97
2023-04-18T02:31:22.234Z,102911.25
2023-04-18T02:34:25.854Z,102912.88
2023-04-18T02:37:29.370Z,102915.63
2023-04-18T02:40:32.860Z,102918.97
2023-04-18T02:43:38.420Z,102915.53
2023-04-18T02:46:41.867Z,102913.69
2023-04-18T02:49:45.421Z,102924.03
2023-04-18T02:52:48.969Z,102919.69
2023-04-18T02:55:52.461Z,102915.41
2023-04-18T02:58:57.358Z,102917.94
2023-04-18T03:02:00.863Z,102918.78
2023-04-18T03:05:04.832Z,102926.59
2023-04-18T03:08:08.693Z,102923.13
2023-04-18T03:11:12.137Z,102923.13
2023-04-18T03:14:17.000Z,102922.19
2023-04-18T03:17:20.859Z,102918.69
2023-04-18T03:20:24.748Z,102927.41
2023-04-18T03:23:28.238Z,102927.19
2023-04-18T03:26:32.008Z,102930.72
2023-04-18T03:29:36.898Z,102945.50
2023-04-18T03:32:42.225Z,102935.09
2023-04-18T03:35:45.914Z,102938.59
2023-04-18T03:38:49.376Z,102937.81
2023-04-18T03:41:53.402Z,102938.66
2023-04-18T03:44:58.366Z,102944.66
2023-04-18T03:48:01.922Z,102951.47
2023-04-18T03:51:07.226Z,102949.84
2023-04-18T03:54:10.808Z,102952.34
2023-04-18T03:57:14.271Z,102954.00
2023-04-18T04:00:19.802Z,102953.09
2023-04-18T04:03:23.318Z,102948.78
2023-04-18T04:06:27.567Z,102947.03
2023-04-18T04:09:31.041Z,102947.88
2023-04-18T04:12:34.625Z,102946.97
2023-04-18T04:15:40.085Z,102957.31
2023-04-18T04:18:43.651Z,102953.91
2023-04-18T04:21:47.373Z,102946.06
2023-04-18T04:24:51.716Z,102946.94
2023-04-18T04:27:55.376Z,102951.47
2023-04-18T04:31:00.539Z,102948.78
2023-04-18T04:34:05.020Z,102958.34
2023-04-18T04:37:09.218Z,102960.94
2023-04-18T04:40:13.749Z,102967.97
2023-04-18T04:43:17.351Z,102964.50
2023-04-18T04:46:23.275Z,102972.50
2023-04-18T04:49:26.902Z,102968.13
2023-04-18T04:52:32.674Z,102968.09
2023-04-18T04:55:36.325Z,102979.53
2023-04-18T04:58:39.851Z,102975.91
2023-04-18T05:01:44.916Z,102983.72
2023-04-18T05:04:48.417Z,102971.59
2023-04-18T05:07:52.180Z,102979.47
2023-04-18T05:10:56.132Z,102978.59
2023-04-18T05:13:59.704Z,102981.25
2023-04-18T05:17:05.231Z,102991.63
2023-04-18T05:20:10.308Z,102991.56
2023-04-18T05:23:13.787Z,102991.41
2023-04-18T05:26:17.599Z,102991.41
2023-04-18T05:29:21.196Z,102986.41
2023-04-18T05:32:27.345Z,102988.78
2023-04-18T05:35:30.885Z,102998.31
2023-04-18T05:38:34.394Z,102990.72
2023-04-18T05:41:37.896Z,102996.88
2023-04-18T05:44:41.481Z,102996.63
2023-04-18T05:47:46.391Z,103005.47
2023-04-18T05:50:49.963Z,103009.00
2023-04-18T05:53:53.511Z,103008.44
2023-04-18T05:56:57.322Z,103007.66
2023-04-18T06:00:00.832Z,103006.44
2023-04-18T06:03:07.876Z,102998.97
2023-04-18T06:06:13.251Z,103003.56
2023-04-18T06:09:16.776Z,103013.41
2023-04-18T06:12:20.273Z,103001.97
2023-04-18T06:15:23.767Z,103009.97
2023-04-18T06:18:28.686Z,103007.44
2023-04-18T06:21:32.373Z,103006.19
2023-04-18T06:24:37.404Z,103012.69
2023-04-18T06:27:41.057Z,103006.22
2023-04-18T06:30:44.730Z,103008.88
2023-04-18T06:33:49.649Z,103017.72
2023-04-18T06:36:53.726Z,103014.28
2023-04-18T06:39:57.265Z,103015.75
2023-04-18T06:43:00.829Z,103021.13
2023-04-18T06:46:06.799Z,103018.69
2023-04-18T06:49:11.922Z,103018.81
2023-04-18T06:52:15.417Z,103015.41
2023-04-18T06:55:19.073Z,103018.22
2023-04-18T06:58:24.077Z,103014.78
2023-04-18T07:01:27.683Z,103016.06
2023-04-18T07:04:32.576Z,103012.50
2023-04-18T07:07:36.528Z,103032.03
2023-04-18T07:10:40.074Z,103030.69
2023-04-18T07:13:43.573Z,103025.63
2023-04-18T07:16:47.592Z,103020.34
2023-04-18T07:19:52.552Z,103015.56
2023-04-18T07:22:57.129Z,103012.00
2023-04-18T07:26:02.622Z,103020.69
2023-04-18T07:29:06.431Z,103023.38
2023-04-18T07:32:10.809Z,103021.56
2023-04-18T07:35:15.761Z,103022.50
2023-04-18T07:38:19.465Z,103018.31
2023-04-18T07:41:23.054Z,103008.81
2023-04-18T07:44:26.620Z,103025.38
2023-04-18T07:47:31.280Z,103024.59
2023-04-18T07:50:36.884Z,103018.38
2023-04-18T07:53:41.112Z,103025.44
2023-04-18T07:56:44.783Z,103012.31
2023-04-18T07:59:48.321Z,103014.09
2023-04-18T08:02:51.920Z,103018.47
2023-04-18T08:05:57.336Z,103021.09
2023-04-18T08:09:04.324Z,103019.34
2023-04-18T08:12:08.423Z,103029.72
2023-04-18T08:15:29.087Z,103028.91
2023-04-18T08:18:32.659Z,103022.84
2023-04-18T08:21:39.211Z,103018.47
2023-04-18T08:24:57.270Z,103024.59
2023-04-18T08:28:06.910Z,103010.63
2023-04-18T08:31:14.996Z,103021.06
2023-04-18T08:34:18.696Z,103020.22
2023-04-18T08:37:23.732Z,103024.59
2023-04-18T08:40:27.322Z,103015.00
2023-04-18T08:43:31.486Z,103029.88
2023-04-18T08:46:35.889Z,103028.97
2023-04-18T08:49:39.957Z,103017.63
2023-04-18T08:52:48.820Z,103023.75
2023-04-18T08:55:56.265Z,103018.50
2023-04-18T08:59:00.782Z,103021.13
2023-04-18T09:02:06.841Z,103017.59
2023-04-18T09:05:15.365Z,103011.47
2023-04-18T09:08:26.500Z,103025.09
2023-04-18T09:11:32.521Z,103009.47
2023-04-18T09:14:37.630Z,103018.16
2023-04-18T09:17:46.134Z,103017.44
2023-04-18T09:20:49.896Z,103009.63
2023-04-18T09:24:20.842Z,103012.16
2023-04-18T09:27:25.698Z,103015.50
2023-04-18T09:30:39.615Z,103006.00
2023-04-18T09:33:56.766Z,103005.25
2023-04-18T09:37:18.358Z,103000.91
2023-04-18T09:40:24.866Z,103003.44
2023-04-18T09:43:28.478Z,102998.25
2023-04-18T09:46:33.201Z,103010.56
2023-04-18T09:49:36.755Z,103000.94
2023-04-18T09:52:42.408Z,103012.22
2023-04-18T09:55:50.948Z,102998.25
2023-04-18T09:59:02.083Z,102994.78
2023-04-18T10:02:16.432Z,103002.72
2023-04-18T10:05:24.437Z,102999.97
2023-04-18T10:08:28.694Z,102995.31
2023-04-18T10:11:34.451Z,102995.16
2023-04-18T10:14:40.396Z,103007.56
2023-04-18T10:18:02.865Z,103008.53
2023-04-18T10:21:10.312Z,102989.66
2023-04-18T10:24:49.562Z,102996.16
2023-04-18T10:28:00.480Z,103005.13
2023-04-18T10:31:05.631Z,103006.88
2023-04-18T10:34:09.634Z,103010.38
2023-04-18T10:37:14.004Z,103006.19
2023-04-18T10:40:17.862Z,103007.94
2023-04-18T10:43:22.835Z,103018.44
2023-04-18T10:46:32.598Z,103006.25
2023-04-18T10:49:38.199Z,103002.72
2023-04-18T10:52:42.666Z,103012.34
2023-04-18T10:55:55.807Z,103012.38
2023-04-18T10:59:04.629Z,103007.97
2023-04-18T11:02:25.629Z,103009.75
2023-04-18T11:05:30.812Z,103005.34
2023-04-18T11:08:34.238Z,103007.97
2023-04-18T11:11:39.102Z,103007.97
2023-04-18T11:14:45.736Z,103010.59
2023-04-18T11:17:59.377Z,102997.50
2023-04-18T11:21:03.852Z,102999.25
2023-04-18T11:24:08.421Z,102994.84
2023-04-18T11:27:13.825Z,102996.63
2023-04-18T11:30:19.836Z,102997.47
2023-04-18T11:33:24.864Z,102993.09
2023-04-18T11:36:28.828Z,102994.84
2023-04-18T11:39:37.204Z,102993.97
2023-04-18T11:42:43.137Z,102995.72
2023-04-18T11:45:55.163Z,102986.06
2023-04-18T11:48:58.854Z,102986.03
2023-04-18T11:52:11.751Z,102976.38
2023-04-18T11:55:18.722Z,102986.00
2023-04-18T11:58:33.174Z,102978.91
2023-04-18T12:01:38.169Z,102983.16
2023-04-18T12:04:53.635Z,102989.22
2023-04-18T12:08:05.781Z,102975.88
2023-04-18T12:11:09.389Z,102979.75
2023-04-18T12:14:22.385Z,102974.66
2023-04-18T12:17:29.160Z,102974.28
2023-04-18T12:20:37.540Z,102990.19
2023-04-18T12:23:42.898Z,102982.09
2023-04-18T12:26:47.148Z,102979.56
2023-04-18T12:29:51.248Z,102984.97
2023-04-18T12:33:00.397Z,102977.09
2023-04-18T12:36:06.174Z,102967.22
2023-04-18T12:39:10.179Z,102973.38
2023-04-18T12:42:13.845Z,102978.00
2023-04-18T12:45:19.318Z,102972.66
2023-04-18T12:48:24.378Z,102978.78
2023-04-18T12:51:28.138Z,102974.38
2023-04-18T12:54:31.614Z,102966.56
2023-04-18T12:57:35.502Z,102962.97
2023-04-18T13:00:39.210Z,102982.28
2023-04-18T13:03:45.546Z,102969.16
2023-04-18T13:06:52.444Z,102973.69
2023-04-18T13:09:56.087Z,102975.31
2023-04-18T13:12:59.726Z,102965.59
2023-04-18T13:16:03.398Z,102970.13
2023-04-18T13:19:08.522Z,102964.84
2023-04-18T13:22:12.097Z,102966.50
2023-04-18T13:25:17.677Z,102969.28
2023-04-18T13:28:21.360Z,102967.56
2023-04-18T13:31:25.299Z,102965.81
2023-04-18T13:34:30.594Z,102962.25
2023-04-18T13:37:34.059Z,102959.47
2023-04-18T13:40:38.832Z,102959.59
2023-04-18T13:43:42.532Z,102956.97
2023-04-18T13:46:46.149Z,102953.31
2023-04-18T13:49:51.652Z,102939.22
2023-04-18T13:52:55.162Z,102954.34
2023-04-18T13:55:59.179Z,102943.72
2023-04-18T13:59:02.685Z,102951.78
2023-04-18T14:02:06.422Z,102949.00
2023-04-18T14:05:12.088Z,102944.59
2023-04-18T14:08:15.802Z,102952.53
2023-04-18T14:11:19.263Z,102956.06
2023-04-18T14:14:24.641Z,102950.72
2023-04-18T14:17:28.778Z,102947.16
2023-04-18T14:20:35.278Z,102953.41
2023-04-18T14:23:38.786Z,102953.44
2023-04-18T14:26:42.298Z,102948.88
2023-04-18T14:29:45.828Z,102948.78
2023-04-18T14:32:49.387Z,102950.75
2023-04-18T14:35:54.300Z,102943.56
2023-04-18T14:38:57.952Z,102938.19
2023-04-18T14:42:01.538Z,102938.25
2023-04-18T14:45:05.905Z,102942.72
2023-04-18T14:48:10.693Z,102934.06
2023-04-18T14:51:16.931Z,102929.44
2023-04-18T14:54:20.564Z,102931.72
2023-04-18T14:57:24.085Z,102925.69
2023-04-18T15:00:28.210Z,102927.31
2023-04-18T15:03:31.982Z,102922.09
2023-04-18T15:06:37.451Z,102914.53
2023-04-18T15:09:41.118Z,102904.06
2023-04-18T15:12:46.769Z,102913.38
2023-04-18T15:15:54.553Z,102907.06
2023-04-18T15:18:58.188Z,102905.44
2023-04-18T15:22:03.544Z,102904.59
2023-04-18T15:25:08.698Z,102904.78
2023-04-18T15:28:13.543Z,102907.13
2023-04-18T15:31:17.981Z,102907.06
2023-04-18T15:34:21.587Z,102906.28
2023-04-18T15:37:26.789Z,102911.78
2023-04-18T15:40:30.460Z,102919.81
2023-04-18T15:43:34.216Z,102915.38
2023-04-18T15:46:38.429Z,102910.06
2023-04-18T15:49:42.125Z,102908.00
2023-04-18T15:52:47.099Z,102915.94
2023-04-18T15:55:50.938Z,102908.09
2023-04-18T15:58:57.507Z,102915.41
2023-04-18T16:02:01.307Z,102920.63
2023-04-18T16:05:05.343Z,102914.59
2023-04-18T16:08:10.881Z,102917.94
2023-04-18T16:11:14.400Z,102916.19
2023-04-18T16:14:18.056Z,102918.00
2023-04-18T16:17:21.525Z,102914.59
2023-04-18T16:20:27.138Z,102917.22
2023-04-18T16:23:33.180Z,102919.13
2023-04-18T16:26:39.543Z,102930.44
2023-04-18T16:29:44.556Z,102929.56
2023-04-18T16:32:48.683Z,102928.75
2023-04-18T16:35:52.330Z,102924.41
2023-04-18T16:38:57.234Z,102927.94
2023-04-18T16:42:01.179Z,102930.59
2023-04-18T16:45:05.730Z,102941.13
2023-04-18T16:48:09.331Z,102938.47
2023-04-18T16:51:13.209Z,102940.19
2023-04-18T16:54:18.161Z,102942.84
2023-04-18T16:57:21.872Z,102934.09
2023-04-18T17:00:25.621Z,102923.63
2023-04-18T17:03:30.529Z,102931.50
2023-04-18T17:06:34.431Z,102939.44
2023-04-18T17:09:39.387Z,102940.28
2023-04-18T17:12:43.012Z,102935.88
2023-04-18T17:15:46.942Z,102949.06
2023-04-18T17:18:50.460Z,102949.91
2023-04-18T17:21:54.112Z,102958.72
2023-04-18T17:24:59.125Z,102951.75
2023-04-18T17:28:03.599Z,102956.19
2023-04-18T17:31:07.595Z,102951.84
2023-04-18T17:34:11.438Z,102952.72
2023-04-18T17:37:17.056Z,102950.06
2023-04-18T17:40:22.305Z,102960.63
2023-04-18T17:43:26.356Z,102958.00
2023-04-18T17:46:30.328Z,102963.25
2023-04-18T17:49:35.097Z,102958.03
2023-04-18T17:52:38.629Z,102967.66
2023-04-18T17:55:43.513Z,102972.94
2023-04-18T17:58:47.370Z,102969.44
2023-04-18T18:01:51.173Z,102979.09
2023-04-18T18:04:54.982Z,102980.84
2023-04-18T18:07:58.663Z,102979.09
2023-04-18T18:11:06.147Z,102980.00
2023-04-18T18:14:09.886Z,102978.22
2023-04-18T18:17:13.583Z,102982.63
2023-04-18T18:20:18.009Z,102987.00
2023-04-18T18:23:22.157Z,102982.59
2023-04-18T18:26:27.287Z,102982.59
2023-04-18T18:29:30.952Z,102983.47
2023-04-18T18:32:34.485Z,102989.59
2023-04-18T18:35:38.320Z,102993.97
2023-04-18T18:38:42.652Z,102993.97
2023-04-18T18:41:47.498Z,102994.84
2023-04-18T18:44:51.850Z,103003.63
2023-04-18T18:47:55.913Z,103004.47
2023-04-18T18:51:00.284Z,102998.38
2023-04-18T18:54:04.159Z,103007.09
2023-04-18T18:57:09.288Z,103007.09
2023-04-18T19:00:14.330Z,103010.59
2023-04-18T19:03:19.342Z,103012.34
2023-04-18T19:06:24.037Z,103014.13
2023-04-18T19:09:27.560Z,103011.47
2023-04-18T19:12:32.529Z,103015.84
2023-04-18T19:15:36.548Z,103019.34
2023-04-18T19:18:41.515Z,103022.84
2023-04-18T19:21:46.043Z,103028.09
2023-04-18T19:24:49.656Z,103023.72
2023-04-18T19:27:54.744Z,103028.06
2023-04-18T19:30:58.407Z,103031.56
2023-04-18T19:34:02.773Z,103035.06
2023-04-18T19:37:06.385Z,103038.53
2023-04-18T19:40:11.956Z,103046.38
2023-04-18T19:43:17.260Z,103038.50
2023-04-18T19:46:21.359Z,103041.13
2023-04-18T19:49:24.887Z,103044.59
2023-04-18T19:52:28.442Z,103044.53
2023-04-18T19:55:32.364Z,103050.66
2023-04-18T19:58:39.781Z,103048.88
2023-04-18T20:01:43.314Z,103054.09
2023-04-18T20:04:47.021Z,103053.19
2023-04-18T20:07:51.148Z,103053.19
2023-04-18T20:10:54.625Z,103061.03
2023-04-18T20:13:59.564Z,103056.56
2023-04-18T20:17:03.099Z,103059.19
2023-04-18T20:20:10.981Z,103063.56
2023-04-18T20:23:14.540Z,103058.25
2023-04-18T20:26:18.185Z,103059.94
2023-04-18T20:29:23.187Z,103061.63
2023-04-18T20:32:26.910Z,103059.81
2023-04-18T20:35:31.579Z,103069.41
2023-04-18T20:38:36.887Z,103057.97
2023-04-18T20:41:46.681Z,103065.75
2023-04-18T20:44:51.578Z,103073.56
2023-04-18T20:47:55.113Z,103068.31
2023-04-18T20:50:58.598Z,103071.75
2023-04-18T20:54:02.208Z,103067.34
2023-04-18T20:57:05.797Z,103074.25
2023-04-18T21:00:14.238Z,103077.69
2023-04-18T21:03:18.249Z,103084.56
2023-04-18T21:06:22.164Z,103092.41
2023-04-18T21:09:25.684Z,103098.47
2023-04-18T21:12:29.373Z,103096.69
2023-04-18T21:15:35.615Z,103101.03
2023-04-18T21:18:39.264Z,103094.88
2023-04-18T21:21:42.781Z,103093.97
2023-04-18T21:24:46.959Z,103098.31
2023-04-18T21:27:51.339Z,103094.81
2023-04-18T21:30:56.356Z,103097.41
2023-04-18T21:34:01.883Z,103094.72
2023-04-18T21:37:05.568Z,103093.84
2023-04-18T21:40:10.806Z,103095.59
2023-04-18T21:43:14.517Z,103092.00
2023-04-18T21:46:20.090Z,103085.97
2023-04-18T21:49:25.658Z,103088.41
2023-04-18T21:52:29.317Z,103091.03
2023-04-18T21:55:32.756Z,103095.28
2023-04-18T21:58:36.946Z,103090.06
2023-04-18T22:01:41.839Z,103087.44
2023-04-18T22:04:45.364Z,103095.25
2023-04-18T22:07:57.348Z,103096.13
2023-04-18T22:11:01.809Z,103086.44
2023-04-18T22:14:05.874Z,103097.72
2023-04-18T22:17:10.749Z,103095.06
2023-04-18T22:20:14.782Z,103092.44
2023-04-18T22:23:18.244Z,103095.88
2023-04-18T22:26:21.779Z,103102.78
2023-04-18T22:29:25.326Z,103091.41
2023-04-18T22:32:30.284Z,103097.44
2023-04-18T22:35:33.995Z,103095.63
2023-04-18T22:38:37.480Z,103097.25
2023-04-18T22:41:40.979Z,103091.19
2023-04-18T22:44:44.448Z,103093.66
2023-04-18T22:47:49.366Z,103098.84
2023-04-18T22:50:52.941Z,103095.25
2023-04-18T22:53:56.723Z,103099.59
2023-04-18T22:57:02.190Z,103092.56
2023-04-18T23:00:07.558Z,103095.97
2023-04-18T23:03:12.645Z,103099.47
2023-04-18T23:06:16.214Z,103093.28
2023-04-18T23:09:19.695Z,103100.16
2023-04-18T23:12:23.208Z,103094.88
2023-04-18T23:15:27.017Z,103097.38
2023-04-18T23:18:32.224Z,103094.72
2023-04-18T23:21:35.983Z,103103.41
2023-04-18T23:24:39.561Z,103102.50
2023-04-18T23:27:43.203Z,103107.63
2023-04-18T23:30:48.130Z,103106.66
2023-04-18T23:33:53.069Z,103118.69
2023-04-18T23:36:56.590Z,103116.94
2023-04-18T23:40:01.078Z,103112.44
2023-04-18T23:43:04.549Z,103115.97
2023-04-18T23:46:08.248Z,103120.19
2023-04-18T23:49:13.144Z,103124.44
2023-04-18T23:52:16.816Z,103119.06
2023-04-18T23:55:20.337Z,103113.78
2023-04-18T23:58:23.919Z,103114.44
